^^
Grace C. Lehan Memorial Weather Station Historical Data
Daily Summary for April 13, 2021 Units:  Metric    English   Both
Daily Weekly Monthly Yearly
  High: Low: Average:
Temperature: 22.1 °C 12.6 °C 16.8 °C
Dew Point: 17.6 °C 11.7 °C 14.9 °C
Humidity: 97% 74.6% 89%
Wind Speed: 2.7km/h 0km/h 0.2km/h
Wind Gust: 16.1km/h - -
Wind- - West
Pressure: 1016.8 hPa 1012.8 hPa -
Precipitation: 0 mm    
 
 
Tabular Data for April 13, 2021
Time Temperature Dew Point Pressure Wind Wind Speed Wind Gust Humidity Rainfall Rate (Hourly) solar
00:00 14.4 °C 13.1 °C 1016.8 hPa Calm     92% 0 mm 0 W/m2
00:09 14.3 °C 13.1 °C 1016.8 hPa Calm     92% 0 mm 0 W/m2
00:14 14.3 °C 13 °C 1016.8 hPa Calm     92% 0 mm 0 W/m2
00:19 14.3 °C 13.1 °C 1016.8 hPa Calm     92.8% 0 mm 0 W/m2
00:24 14.2 °C 13.1 °C 1016.8 hPa Calm     92.7% 0 mm 0 W/m2
00:29 14.2 °C 13.1 °C 1016.8 hPa Calm     92.7% 0 mm 0 W/m2
00:34 14.2 °C 13.1 °C 1016.8 hPa Calm     93% 0 mm 0 W/m2
00:39 14.2 °C 13.1 °C 1016.8 hPa Calm     93% 0 mm 0 W/m2
00:44 14.1 °C 13 °C 1016.5 hPa Calm     93% 0 mm 0 W/m2
00:49 14.1 °C 12.9 °C 1016.5 hPa Calm     93% 0 mm 0 W/m2
00:54 13.9 °C 12.8 °C 1016.5 hPa Calm     93% 0 mm 0 W/m2
00:59 13.9 °C 12.7 °C 1016.5 hPa Calm     92.9% 0 mm 0 W/m2
01:04 13.8 °C 12.7 °C 1016.5 hPa Calm     93% 0 mm 0 W/m2
01:09 13.8 °C 12.7 °C 1016.5 hPa Calm     93% 0 mm 0 W/m2
01:14 13.8 °C 12.7 °C 1016.5 hPa Calm     93% 0 mm 0 W/m2
01:19 13.7 °C 12.6 °C 1016.5 hPa Calm     93% 0 mm 0 W/m2
01:24 13.7 °C 12.6 °C 1016.5 hPa Calm     93% 0 mm 0 W/m2
01:29 13.7 °C 12.6 °C 1016.5 hPa Calm     93% 0 mm 0 W/m2
01:34 13.6 °C 12.5 °C 1016.5 hPa Calm     93% 0 mm 0 W/m2
01:39 13.6 °C 12.6 °C 1016.5 hPa Calm     93.4% 0 mm 0 W/m2
01:44 13.6 °C 12.7 °C 1016.1 hPa Calm     94% 0 mm 0 W/m2
01:49 13.6 °C 12.7 °C 1016.5 hPa Calm     94% 0 mm 0 W/m2
01:54 13.6 °C 12.6 °C 1016.1 hPa Calm     94% 0 mm 0 W/m2
01:59 13.6 °C 12.6 °C 1016.1 hPa Calm     94% 0 mm 0 W/m2
02:04 13.5 °C 12.6 °C 1016.1 hPa Calm     94% 0 mm 0 W/m2
02:09 13.4 °C 12.5 °C 1016.1 hPa Calm     94% 0 mm 0 W/m2
02:14 13.4 °C 12.4 °C 1016.1 hPa Calm     94% 0 mm 0 W/m2
02:19 13.3 °C 12.4 °C 1016.1 hPa Calm     94% 0 mm 0 W/m2
02:24 13.3 °C 12.3 °C 1016.1 hPa Calm     94% 0 mm 0 W/m2
02:29 13.2 °C 12.3 °C 1016.1 hPa Calm     94% 0 mm 0 W/m2
02:34 13.2 °C 12.2 °C 1016.1 hPa Calm     94% 0 mm 0 W/m2
02:39 13.1 °C 12.2 °C 1016.1 hPa Calm     94% 0 mm 0 W/m2
02:44 13.1 °C 12.1 °C 1016.1 hPa Calm     94% 0 mm 0 W/m2
02:49 13.1 °C 12.1 °C 1016.1 hPa Calm     94% 0 mm 0 W/m2
02:54 13 °C 12.1 °C 1016.1 hPa Calm     94% 0 mm 0 W/m2
02:59 13 °C 12.1 °C 1016.1 hPa Calm     94% 0 mm 0 W/m2
03:04 12.9 °C 12 °C 1016.1 hPa Calm     94% 0 mm 0 W/m2
03:09 12.8 °C 11.9 °C 1016.1 hPa Calm     94% 0 mm 0 W/m2
03:14 12.8 °C 11.8 °C 1016.1 hPa Calm     94% 0 mm 0 W/m2
03:19 12.7 °C 11.7 °C 1016.1 hPa Calm     94% 0 mm 0 W/m2
03:24 12.7 °C 11.7 °C 1016.1 hPa Calm     94% 0 mm 0 W/m2
03:29 12.7 °C 11.9 °C 1016.1 hPa Calm     94.8% 0 mm 0 W/m2
03:34 12.8 °C 12 °C 1016.1 hPa Calm     95% 0 mm 0 W/m2
03:39 12.8 °C 12 °C 1016.5 hPa Calm     95% 0 mm 0 W/m2
03:44 12.8 °C 12.1 °C 1016.5 hPa Calm     95% 0 mm 0 W/m2
03:49 12.9 °C 12.1 °C 1016.5 hPa Calm     95% 0 mm 0 W/m2
03:54 12.9 °C 12.2 °C 1016.1 hPa Calm     95% 0 mm 0 W/m2
03:59 13.1 °C 12.3 °C 1016.5 hPa Calm     95% 0 mm 0 W/m2
04:00 13.2 °C 12.4 °C 1016.5 hPa Calm     95% 0 mm 0 W/m2
04:09 13.1 °C 12.3 °C 1016.5 hPa Calm     95% 0 mm 0 W/m2
04:14 13 °C 12.2 °C 1016.5 hPa Calm     95% 0 mm 0 W/m2
04:19 12.9 °C 12.2 °C 1016.5 hPa Calm     95% 0 mm 0 W/m2
04:24 12.8 °C 12.1 °C 1016.5 hPa Calm     95% 0 mm 0 W/m2
04:29 12.8 °C 12 °C 1016.1 hPa Calm     95% 0 mm 0 W/m2
04:34 12.8 °C 12 °C 1016.1 hPa Calm     95% 0 mm 0 W/m2
04:39 12.7 °C 11.9 °C 1016.5 hPa Calm     95% 0 mm 0 W/m2
04:44 12.7 °C 11.9 °C 1016.5 hPa Calm     95% 0 mm 0 W/m2
04:49 12.7 °C 11.9 °C 1016.5 hPa Calm     95% 0 mm 0 W/m2
04:54 12.7 °C 11.9 °C 1016.5 hPa Calm     95% 0 mm 0 W/m2
04:59 12.7 °C 11.9 °C 1016.5 hPa Calm     95% 0 mm 0 W/m2
05:04 12.6 °C 11.8 °C 1016.5 hPa Calm     95% 0 mm 0 W/m2
05:09 12.6 °C 11.8 °C 1016.5 hPa Calm     95% 0 mm 0 W/m2
05:14 12.6 °C 11.8 °C 1016.5 hPa Calm     95% 0 mm 0 W/m2
05:19 12.6 °C 11.8 °C 1016.5 hPa Calm     95% 0 mm 0 W/m2
05:24 12.6 °C 11.8 °C 1016.5 hPa Calm     95% 0 mm 0 W/m2
05:29 12.6 °C 11.9 °C 1016.5 hPa Calm     95.5% 0 mm 0 W/m2
05:34 12.6 °C 12 °C 1016.5 hPa Calm     96% 0 mm 0 W/m2
05:39 12.6 °C 12 °C 1016.5 hPa Calm     96% 0 mm 0 W/m2
05:44 12.6 °C 12 °C 1016.5 hPa Calm     96% 0 mm 0 W/m2
05:49 12.6 °C 12 °C 1016.5 hPa Calm     96% 0 mm 0 W/m2
05:54 12.6 °C 11.9 °C 1016.5 hPa Calm     96% 0 mm 0 W/m2
05:59 12.6 °C 11.9 °C 1016.5 hPa Calm     96% 0 mm 0 W/m2
06:04 12.6 °C 11.9 °C 1016.5 hPa Calm     96% 0 mm 0 W/m2
06:09 12.6 °C 12 °C 1016.5 hPa Calm     96% 0 mm 0 W/m2
06:14 12.7 °C 12.1 °C 1016.5 hPa Calm     96% 0 mm 0 W/m2
06:19 12.7 °C 12.1 °C 1016.5 hPa Calm     96% 0 mm 0 W/m2
06:24 12.8 °C 12.1 °C 1016.5 hPa Calm     96% 0 mm 0 W/m2
06:29 12.8 °C 12.2 °C 1016.5 hPa Calm     96% 0 mm 0 W/m2
06:34 12.9 °C 12.2 °C 1016.5 hPa Calm     96% 0 mm 0 W/m2
06:39 12.9 °C 12.4 °C 1016.5 hPa Calm     96.2% 0 mm 0 W/m2
06:44 13.1 °C 12.4 °C 1016.5 hPa Calm     96.2% 0 mm 0 W/m2
06:49 13.1 °C 12.4 °C 1016.5 hPa Calm     96% 0 mm 0 W/m2
06:54 13.1 °C 12.5 °C 1016.5 hPa Calm     96% 0 mm 0 W/m2
06:59 13.2 °C 12.6 °C 1016.5 hPa Calm     96% 0 mm 0 W/m2
07:04 13.2 °C 12.6 °C 1016.5 hPa Calm     96% 0 mm 0 W/m2
07:09 13.2 °C 12.6 °C 1016.5 hPa Calm     96% 0 mm 0 W/m2
07:14 13.3 °C 12.7 °C 1016.5 hPa Calm     96% 0 mm 5 W/m2
07:19 13.4 °C 12.7 °C 1016.5 hPa Calm     96% 0 mm 9 W/m2
07:24 13.4 °C 12.8 °C 1016.5 hPa Calm     96% 0 mm 11 W/m2
07:29 13.5 °C 12.9 °C 1016.5 hPa Calm     96% 0 mm 11 W/m2
07:34 13.6 °C 12.9 °C 1016.5 hPa Calm     96% 0 mm 14 W/m2
07:39 13.6 °C 13 °C 1016.5 hPa Calm     96% 0 mm 18 W/m2
07:44 13.7 °C 13.1 °C 1016.5 hPa Calm     96% 0 mm 23 W/m2
07:49 13.7 °C 13.1 °C 1016.1 hPa Calm     96% 0 mm 28 W/m2
07:54 13.7 °C 13.1 °C 1016.5 hPa Calm     96% 0 mm 37 W/m2
07:59 13.8 °C 13.2 °C 1016.5 hPa Calm     96% 0 mm 44 W/m2
08:00 13.8 °C 13.2 °C 1016.1 hPa Calm     96% 0 mm 44 W/m2
08:09 13.9 °C 13.3 °C 1016.5 hPa Calm     96% 0 mm 62 W/m2
08:14 13.9 °C 13.3 °C 1016.5 hPa Calm     96% 0 mm 74 W/m2
08:19 13.9 °C 13.3 °C 1016.5 hPa Calm     96% 0 mm 56 W/m2
08:24 13.9 °C 13.3 °C 1016.5 hPa Calm     96% 0 mm 51 W/m2
08:29 13.9 °C 13.3 °C 1016.5 hPa Calm     96% 0 mm 53 W/m2
08:34 13.9 °C 13.3 °C 1016.5 hPa Calm     96% 0 mm 54 W/m2
08:39 14 °C 13.4 °C 1016.5 hPa Calm     96% 0 mm 69 W/m2
08:44 14.1 °C 13.4 °C 1016.5 hPa Calm     96.1% 0 mm 79 W/m2
08:49 14.1 °C 13.6 °C 1016.8 hPa Calm     96.9% 0 mm 77 W/m2
08:54 14.2 °C 13.6 °C 1016.8 hPa Calm   1.6 km/h 96.2% 0 mm 86 W/m2
08:59 14.2 °C 13.7 °C 1016.8 hPa Calm   3.2 km/h 96.5% 0 mm 79 W/m2
09:04 14.3 °C 13.7 °C 1016.8 hPa Calm   3.2 km/h 96.5% 0 mm 69 W/m2
09:09 14.4 °C 13.7 °C 1016.8 hPa Calm     96% 0 mm 97 W/m2
09:14 14.4 °C 13.8 °C 1016.8 hPa Calm     96% 0 mm 111 W/m2
09:19 14.4 °C 13.8 °C 1016.5 hPa Calm     96% 0 mm 88 W/m2
09:24 14.4 °C 13.8 °C 1016.5 hPa Calm     96.2% 0 mm 148 W/m2
09:29 14.4 °C 13.8 °C 1016.5 hPa Calm     96.2% 0 mm 148 W/m2
09:34 14.6 °C 14.1 °C 1016.5 hPa Calm     97% 0 mm 142 W/m2
09:39 14.7 °C 14.2 °C 1016.5 hPa Calm     97% 0 mm 120 W/m2
09:44 14.7 °C 14.2 °C 1016.5 hPa Calm     97% 0 mm 155 W/m2
09:49 14.8 °C 14.3 °C 1016.5 hPa Calm     97% 0 mm 174 W/m2
09:54 14.9 °C 14.4 °C 1016.5 hPa Calm     97% 0 mm 178 W/m2
09:59 14.9 °C 14.5 °C 1016.5 hPa Calm     97% 0 mm 179 W/m2
10:04 15.1 °C 14.7 °C 1016.5 hPa Calm     97% 0 mm 151 W/m2
10:09 15.3 °C 14.8 °C 1016.5 hPa Calm     97% 0 mm 171 W/m2
10:14 15.4 °C 15 °C 1016.5 hPa Calm     97% 0 mm 193 W/m2
10:19 15.6 °C 15.2 °C 1016.5 hPa Calm     97% 0 mm 193 W/m2
10:24 15.7 °C 15.2 °C 1016.5 hPa Calm     97% 0 mm 250 W/m2
10:29 15.8 °C 15.3 °C 1016.5 hPa Calm     97% 0 mm 250 W/m2
10:34 15.9 °C 15.4 °C 1016.1 hPa Calm     97% 0 mm 292 W/m2
10:39 16 °C 15.6 °C 1016.5 hPa Calm     97% 0 mm 292 W/m2
10:44 16.2 °C 15.6 °C 1016.5 hPa Calm     96.7% 0 mm 225 W/m2
10:49 16.3 °C 15.8 °C 1016.5 hPa Calm     96.8% 0 mm 267 W/m2
10:54 16.6 °C 16 °C 1016.1 hPa Calm     96.2% 0 mm 559 W/m2
10:59 17 °C 16.4 °C 1016.1 hPa SW 0.2 km/h 3.2 km/h 96.2% 0 mm 624 W/m2
11:04 17.5 °C 16.8 °C 1016.1 hPa Calm   3.2 km/h 96% 0 mm 608 W/m2
11:09 18 °C 17.1 °C 1016.1 hPa SSW 0.2 km/h 3.2 km/h 94.5% 0 mm 608 W/m2
11:14 18.3 °C 16.9 °C 1016.1 hPa Calm   3.2 km/h 91.6% 0 mm 192 W/m2
11:19 18.4 °C 16.6 °C 1016.1 hPa Calm   3.2 km/h 89.6% 0 mm 135 W/m2
11:24 18.4 °C 16.6 °C 1016.1 hPa Calm   3.2 km/h 89% 0 mm 229 W/m2
11:29 18.5 °C 16.6 °C 1016.1 hPa Calm   3.2 km/h 88.6% 0 mm 243 W/m2
11:34 18.6 °C 16.5 °C 1016.1 hPa Calm   3.2 km/h 88% 0 mm 243 W/m2
11:39 18.7 °C 16.7 °C 1015.8 hPa Calm     88% 0 mm 221 W/m2
11:44 18.8 °C 16.7 °C 1015.8 hPa Calm     87.5% 0 mm 239 W/m2
11:49 19 °C 16.8 °C 1015.8 hPa Calm     87% 0 mm 206 W/m2
11:54 19.2 °C 16.8 °C 1015.8 hPa Calm     86.4% 0 mm 230 W/m2
11:59 19.2 °C 16.8 °C 1015.8 hPa Calm     86% 0 mm 236 W/m2
12:00 19.3 °C 16.9 °C 1015.8 hPa Calm     86% 0 mm 209 W/m2
12:09 19.6 °C 17.2 °C 1015.8 hPa Calm     86% 0 mm 209 W/m2
12:14 19.6 °C 16.9 °C 1015.8 hPa Calm     84.6% 0 mm 199 W/m2
12:19 19.7 °C 17 °C 1015.5 hPa Calm   1.6 km/h 84.3% 0 mm 234 W/m2
12:24 19.9 °C 17.2 °C 1015.5 hPa SSW 0.3 km/h 6.4 km/h 84.3% 0 mm 325 W/m2
12:29 20.2 °C 17.2 °C 1015.5 hPa SW 0.2 km/h 6.4 km/h 83.1% 0 mm 371 W/m2
12:34 20.5 °C 17.2 °C 1015.1 hPa SW 0.3 km/h 6.4 km/h 81.1% 0 mm 253 W/m2
12:39 20.7 °C 17.1 °C 1015.1 hPa Calm   4.8 km/h 79.5% 0 mm 239 W/m2
12:44 20.9 °C 17.1 °C 1015.1 hPa WSW 0.8 km/h 9.7 km/h 79% 0 mm 251 W/m2
12:49 21 °C 17.2 °C 1015.1 hPa WSW 0.8 km/h 9.7 km/h 79% 0 mm 267 W/m2
12:54 21.2 °C 17.3 °C 1015.1 hPa Calm   9.7 km/h 78.5% 0 mm 281 W/m2
12:59 21.4 °C 17.6 °C 1014.8 hPa West 0.2 km/h 9.7 km/h 78.8% 0 mm 262 W/m2
13:04 21.6 °C 17.6 °C 1014.8 hPa West 0.3 km/h 9.7 km/h 77.6% 0 mm 236 W/m2
13:09 21.8 °C 17.4 °C 1014.8 hPa Calm   6.4 km/h 76.5% 0 mm 229 W/m2
13:14 21.8 °C 17.3 °C 1014.8 hPa Calm   6.4 km/h 75.8% 0 mm 262 W/m2
13:19 21.8 °C 17.3 °C 1014.4 hPa West 0.6 km/h 8 km/h 75.5% 0 mm 297 W/m2
13:24 21.8 °C 17.4 °C 1014.4 hPa West 1.4 km/h 8 km/h 75.8% 0 mm 220 W/m2
13:29 21.9 °C 17.4 °C 1014.4 hPa West 0.3 km/h 8 km/h 75.7% 0 mm 223 W/m2
13:34 21.9 °C 17.3 °C 1014.1 hPa West 1.6 km/h 11.3 km/h 75% 0 mm 209 W/m2
13:39 21.9 °C 17.3 °C 1014.1 hPa Calm   11.3 km/h 75% 0 mm 221 W/m2
13:44 21.9 °C 17.4 °C 1014.1 hPa West 0.3 km/h 11.3 km/h 75.7% 0 mm 237 W/m2
13:49 21.9 °C 17.5 °C 1014.1 hPa West 0.2 km/h 11.3 km/h 75.7% 0 mm 218 W/m2
13:54 22 °C 17.4 °C 1014.1 hPa WSW 1.1 km/h 11.3 km/h 75% 0 mm 171 W/m2
13:59 22 °C 17.3 °C 1014.1 hPa Calm   11.3 km/h 74.7% 0 mm 206 W/m2
14:04 22.1 °C 17.4 °C 1014.1 hPa Calm   11.3 km/h 75% 0 mm 183 W/m2
14:09 22.1 °C 17.4 °C 1013.8 hPa WSW 0.2 km/h 6.4 km/h 75% 0 mm 211 W/m2
14:14 22.1 °C 17.3 °C 1013.8 hPa WSW 0.5 km/h 8 km/h 74.6% 0 mm 209 W/m2
14:19 22.1 °C 17.4 °C 1013.8 hPa WSW 0.2 km/h 8 km/h 74.9% 0 mm 209 W/m2
14:24 22.1 °C 17.4 °C 1013.8 hPa West 0.6 km/h 9.7 km/h 75.2% 0 mm 193 W/m2
14:29 22 °C 17.3 °C 1013.8 hPa West 2.1 km/h 9.7 km/h 74.8% 0 mm 209 W/m2
14:34 21.9 °C 17.3 °C 1013.8 hPa West 0.6 km/h 9.7 km/h 75.1% 0 mm 197 W/m2
14:39 21.9 °C 17.4 °C 1013.8 hPa West 0.8 km/h 8 km/h 75.7% 0 mm 171 W/m2
14:44 21.8 °C 17.3 °C 1013.8 hPa West 2.1 km/h 16.1 km/h 75.7% 0 mm 155 W/m2
14:49 21.7 °C 17.4 °C 1013.8 hPa West 0.5 km/h 16.1 km/h 76.5% 0 mm 176 W/m2
14:54 21.7 °C 17.3 °C 1013.8 hPa West 2.4 km/h 16.1 km/h 76.2% 0 mm 181 W/m2
14:59 21.6 °C 17.3 °C 1013.8 hPa West 2.7 km/h 16.1 km/h 76.5% 0 mm 165 W/m2
15:04 21.6 °C 17.3 °C 1013.8 hPa West 2.6 km/h 16.1 km/h 76.8% 0 mm 137 W/m2
15:09 21.4 °C 17.2 °C 1013.8 hPa West 0.6 km/h 11.3 km/h 76.6% 0 mm 132 W/m2
15:14 21.4 °C 17.2 °C 1013.8 hPa West 0.6 km/h 11.3 km/h 77% 0 mm 109 W/m2
15:19 21.3 °C 17.3 °C 1013.8 hPa West 1.3 km/h 11.3 km/h 77.6% 0 mm 98 W/m2
15:24 21.3 °C 17.3 °C 1013.8 hPa West 1.3 km/h 11.3 km/h 78% 0 mm 93 W/m2
15:29 21.2 °C 17.2 °C 1013.8 hPa West 1.1 km/h 11.3 km/h 78% 0 mm 95 W/m2
15:34 21.1 °C 17.1 °C 1013.8 hPa West 2.3 km/h 11.3 km/h 78% 0 mm 86 W/m2
15:39 21 °C 17.1 °C 1013.8 hPa West 0.6 km/h 9.7 km/h 78.1% 0 mm 76 W/m2
15:44 20.9 °C 17.2 °C 1013.8 hPa West 0.5 km/h 9.7 km/h 79% 0 mm 70 W/m2
15:49 20.8 °C 17.1 °C 1013.8 hPa West 0.2 km/h 9.7 km/h 78.8% 0 mm 74 W/m2
15:54 20.8 °C 17 °C 1013.8 hPa West 0.5 km/h 9.7 km/h 79% 0 mm 79 W/m2
15:59 20.8 °C 17 °C 1013.8 hPa West 0.8 km/h 9.7 km/h 79.2% 0 mm 81 W/m2
16:00 20.7 °C 16.9 °C 1013.8 hPa Calm   9.7 km/h 79% 0 mm 74 W/m2
16:09 20.7 °C 16.9 °C 1013.8 hPa Calm   1.6 km/h 79.4% 0 mm 72 W/m2
16:14 20.7 °C 17.1 °C 1013.8 hPa Calm   1.6 km/h 80% 0 mm 72 W/m2
16:19 20.6 °C 17.1 °C 1013.8 hPa Calm   1.6 km/h 80.2% 0 mm 58 W/m2
16:24 20.6 °C 17.1 °C 1013.8 hPa West 1.9 km/h 8 km/h 80.2% 0 mm 46 W/m2
16:29 20.5 °C 16.9 °C 1013.8 hPa West 0.5 km/h 8 km/h 80.1% 0 mm 53 W/m2
16:34 20.4 °C 17.1 °C 1013.8 hPa West 0.3 km/h 8 km/h 81% 0 mm 56 W/m2
16:39 20.4 °C 17.1 °C 1013.8 hPa Calm   8 km/h 81% 0 mm 56 W/m2
16:44 20.4 °C 17.1 °C 1013.8 hPa Calm   8 km/h 81% 0 mm 54 W/m2
16:49 20.4 °C 17 °C 1013.8 hPa Calm   8 km/h 81% 0 mm 53 W/m2
16:54 20.4 °C 17.1 °C 1013.8 hPa Calm   8 km/h 81.2% 0 mm 42 W/m2
16:59 20.3 °C 17 °C 1014.1 hPa Calm   8 km/h 81% 0 mm 33 W/m2
17:04 20.3 °C 16.9 °C 1013.8 hPa Calm   8 km/h 81% 0 mm 33 W/m2
17:09 20.3 °C 16.9 °C 1013.8 hPa Calm     81% 0 mm 33 W/m2
17:14 20.2 °C 16.9 °C 1013.8 hPa Calm     81% 0 mm 33 W/m2
17:19 20.2 °C 16.9 °C 1013.8 hPa Calm     81.3% 0 mm 28 W/m2
17:24 20.2 °C 17.1 °C 1013.8 hPa Calm     82% 0 mm 23 W/m2
17:29 20.2 °C 17 °C 1013.8 hPa Calm     82% 0 mm 19 W/m2
17:34 20.1 °C 16.9 °C 1013.8 hPa Calm     82% 0 mm 14 W/m2
17:39 20.1 °C 16.9 °C 1013.8 hPa Calm     82% 0 mm 14 W/m2
17:44 20.1 °C 16.9 °C 1013.8 hPa Calm     82% 0 mm 12 W/m2
17:49 20 °C 16.9 °C 1013.8 hPa Calm     82.4% 0 mm 7 W/m2
17:54 19.9 °C 16.8 °C 1013.8 hPa Calm     82% 0 mm 5 W/m2
17:58 19.9 °C 16.7 °C 1013.8 hPa Calm     82% 0 mm 5 W/m2
18:04 19.8 °C 16.9 °C 1013.8 hPa Calm     83% 0 mm 0 W/m2
18:09 19.8 °C 16.8 °C 1013.8 hPa Calm     83% 0 mm 0 W/m2
18:14 19.8 °C 16.8 °C 1013.8 hPa Calm     83% 0 mm 0 W/m2
18:19 19.7 °C 16.8 °C 1013.8 hPa Calm     83% 0 mm 0 W/m2
18:24 19.7 °C 16.7 °C 1013.8 hPa Calm     83% 0 mm 0 W/m2
18:29 19.7 °C 16.7 °C 1013.8 hPa Calm     83.1% 0 mm 0 W/m2
18:34 19.6 °C 16.7 °C 1013.8 hPa Calm     83.3% 0 mm 0 W/m2
18:39 19.6 °C 16.8 °C 1013.8 hPa Calm     84% 0 mm 0 W/m2
18:44 19.5 °C 16.7 °C 1013.8 hPa Calm     84% 0 mm 0 W/m2
18:49 19.5 °C 16.7 °C 1013.8 hPa Calm     84% 0 mm 0 W/m2
18:54 19.4 °C 16.7 °C 1013.8 hPa Calm     84% 0 mm 0 W/m2
18:59 19.4 °C 16.7 °C 1013.8 hPa Calm     84.7% 0 mm 0 W/m2
19:04 19.3 °C 16.8 °C 1013.8 hPa Calm     85% 0 mm 0 W/m2
19:09 19.3 °C 16.8 °C 1013.8 hPa Calm     85% 0 mm 0 W/m2
19:14 19.3 °C 16.7 °C 1013.8 hPa Calm     85% 0 mm 0 W/m2
19:19 19.3 °C 16.7 °C 1013.8 hPa Calm     85% 0 mm 0 W/m2
19:24 19.3 °C 16.7 °C 1013.8 hPa Calm     85% 0 mm 0 W/m2
19:29 19.2 °C 16.8 °C 1014.1 hPa Calm     85.8% 0 mm 0 W/m2
19:34 19.2 °C 16.8 °C 1014.1 hPa Calm     86% 0 mm 0 W/m2
19:39 19.2 °C 16.8 °C 1014.1 hPa Calm     86% 0 mm 0 W/m2
19:44 19.2 °C 16.8 °C 1014.1 hPa Calm     86% 0 mm 0 W/m2
19:49 19.1 °C 16.7 °C 1014.1 hPa Calm     86% 0 mm 0 W/m2
19:54 19.1 °C 16.7 °C 1013.8 hPa Calm     86% 0 mm 0 W/m2
19:59 19.1 °C 16.7 °C 1013.8 hPa Calm     86% 0 mm 0 W/m2
20:00 19.1 °C 16.7 °C 1013.8 hPa Calm     86% 0 mm 0 W/m2
20:09 18.9 °C 16.6 °C 1013.8 hPa Calm     86% 0 mm 0 W/m2
20:14 18.9 °C 16.5 °C 1013.8 hPa Calm     86% 0 mm 0 W/m2
20:19 18.8 °C 16.4 °C 1013.8 hPa Calm     86% 0 mm 0 W/m2
20:24 18.7 °C 16.3 °C 1013.8 hPa Calm     86% 0 mm 0 W/m2
20:29 18.7 °C 16.3 °C 1013.8 hPa Calm     86.3% 0 mm 0 W/m2
20:34 18.6 °C 16.3 °C 1013.8 hPa Calm   1.6 km/h 86.7% 0 mm 0 W/m2
20:39 18.5 °C 16.3 °C 1013.8 hPa Calm   1.6 km/h 87% 0 mm 0 W/m2
20:44 18.4 °C 16.2 °C 1013.8 hPa Calm   1.6 km/h 87% 0 mm 0 W/m2
20:49 18.3 °C 16.3 °C 1013.8 hPa Calm   1.6 km/h 87.8% 0 mm 0 W/m2
20:54 18.3 °C 16.3 °C 1013.4 hPa Calm   1.6 km/h 88% 0 mm 0 W/m2
20:59 18.2 °C 16.2 °C 1013.4 hPa Calm   1.6 km/h 88% 0 mm 0 W/m2
21:04 18.2 °C 16.2 °C 1013.8 hPa Calm   1.6 km/h 88% 0 mm 0 W/m2
21:09 18.1 °C 16.2 °C 1013.4 hPa Calm     88.3% 0 mm 0 W/m2
21:14 18.1 °C 16.2 °C 1013.4 hPa Calm     89% 0 mm 0 W/m2
21:19 17.9 °C 16 °C 1013.4 hPa Calm     88.4% 0 mm 0 W/m2
21:24 17.9 °C 16 °C 1013.4 hPa Calm     88.8% 0 mm 0 W/m2
21:29 17.8 °C 15.9 °C 1013.4 hPa Calm     89% 0 mm 0 W/m2
21:34 17.7 °C 15.9 °C 1013.8 hPa Calm     89% 0 mm 0 W/m2
21:39 17.7 °C 15.8 °C 1013.4 hPa Calm     89% 0 mm 0 W/m2
21:44 17.6 °C 15.9 °C 1013.4 hPa Calm     89.7% 0 mm 0 W/m2
21:49 17.6 °C 15.9 °C 1013.4 hPa Calm     90% 0 mm 0 W/m2
21:54 17.5 °C 15.8 °C 1013.4 hPa Calm     90% 0 mm 0 W/m2
21:59 17.4 °C 15.8 °C 1013.4 hPa Calm     90.2% 0 mm 0 W/m2
22:04 17.3 °C 15.7 °C 1013.4 hPa Calm     90.2% 0 mm 0 W/m2
22:09 17.3 °C 15.8 °C 1013.4 hPa Calm     90.7% 0 mm 0 W/m2
22:14 17.3 °C 15.8 °C 1013.4 hPa Calm     91% 0 mm 0 W/m2
22:19 17.2 °C 15.8 °C 1013.4 hPa Calm     91% 0 mm 0 W/m2
22:24 17.2 °C 15.7 °C 1013.1 hPa Calm     91% 0 mm 0 W/m2
22:29 17.1 °C 15.6 °C 1013.1 hPa Calm     91% 0 mm 0 W/m2
22:34 17.1 °C 15.6 °C 1013.1 hPa Calm     91% 0 mm 0 W/m2
22:39 16.9 °C 15.5 °C 1013.1 hPa Calm     91% 0 mm 0 W/m2
22:44 16.9 °C 15.5 °C 1013.1 hPa Calm     91.4% 0 mm 0 W/m2
22:49 16.8 °C 15.6 °C 1013.4 hPa Calm     92% 0 mm 0 W/m2
22:54 16.8 °C 15.5 °C 1013.1 hPa Calm     92% 0 mm 0 W/m2
22:59 16.7 °C 15.4 °C 1013.1 hPa Calm     92% 0 mm 0 W/m2
23:04 16.7 °C 15.4 °C 1013.1 hPa Calm     92% 0 mm 0 W/m2
23:09 16.6 °C 15.3 °C 1013.1 hPa Calm     92% 0 mm 0 W/m2
23:14 16.6 °C 15.3 °C 1013.1 hPa Calm     92% 0 mm 0 W/m2
23:19 16.6 °C 15.4 °C 1013.1 hPa Calm     92.9% 0 mm 0 W/m2
23:24 16.5 °C 15.4 °C 1013.1 hPa Calm     93% 0 mm 0 W/m2
23:29 16.5 °C 15.3 °C 1012.8 hPa Calm     93% 0 mm 0 W/m2
23:34 16.4 °C 15.3 °C 1012.8 hPa Calm     93% 0 mm 0 W/m2
23:39 16.4 °C 15.3 °C 1012.8 hPa Calm     93% 0 mm 0 W/m2
23:44 16.4 °C 15.3 °C 1012.8 hPa Calm     93% 0 mm 0 W/m2
23:49 16.4 °C 15.3 °C 1012.8 hPa Calm     93% 0 mm 0 W/m2
23:54 16.4 °C 15.2 °C 1012.8 hPa Calm     93% 0 mm 0 W/m2
23:59 16.3 °C 15.2 °C 1012.8 hPa Calm     93% 0 mm 0 W/m2
Hartford County Weather
Compliments of Weather Underground - 4 mb